Date,TemperatureHighF,TemperatureAvgF,TemperatureLowF,DewpointHighF,DewpointAvgF,DewpointLowF,HumidityHigh,HumidityAvg,HumidityLow,PressureMaxIn,PressureMinIn,WindSpeedMaxMPH,WindSpeedAvgMPH,GustSpeedMaxMPH,PrecipitationSumIn
2013-2-1,28.9,23.3,16.9,21.8,10.7,4.3,87,59,44,30.38,29.83,6,3,11,0.00
2013-2-2,26.1,19.7,9.8,22.3,11.9,4.3,92,72,53,30.39,30.03,5,2,12,0.00
2013-2-3,33.5,26.5,19.0,27.8,22.6,17.1,94,86,64,30.04,29.83,5,1,9,0.00
2013-2-4,35.0,28.0,22.1,27.7,17.6,11.1,92,66,47,30.10,29.89,6,2,9,0.00
2013-2-5,36.7,31.8,26.9,33.1,29.6,25.7,95,92,84,29.95,29.86,2,0,3,0.03
2013-2-6,39.4,31.7,23.7,31.1,25.6,19.2,96,79,59,30.36,29.94,6,1,7,0.02
2013-2-7,37.9,30.4,20.6,27.9,22.8,17.8,92,75,56,30.44,30.22,5,1,6,0.00
2013-2-8,37.1,34.4,31.1,35.5,30.1,23.0,95,84,70,30.22,29.80,6,1,20,0.02
2013-2-9,38.6,29.2,20.9,22.8,17.8,14.2,79,63,39,30.41,29.98,8,4,19,0.00
2013-2-10,44.0,30.6,13.4,22.3,17.7,11.3,93,63,35,30.48,30.20,9,4,16,0.00
2013-2-11,60.4,45.6,35.0,48.4,37.0,22.3,96,76,27,30.21,29.67,12,5,19,0.20
2013-2-12,52.6,43.5,30.0,31.8,28.7,25.6,85,57,41,30.00,29.84,10,4,16,0.00
2013-2-13,41.9,33.1,24.4,32.9,28.5,22.1,95,84,62,29.95,29.69,4,1,6,0.02
2013-2-14,48.6,37.2,28.1,32.7,29.6,25.3,96,75,51,30.02,29.79,7,2,10,0.11
2013-2-15,51.8,39.2,28.5,37.4,32.0,24.9,94,76,52,30.04,29.95,5,2,10,0.13
2013-2-16,36.6,32.3,27.1,32.2,25.6,17.6,96,78,54,30.01,29.88,5,2,11,0.00
2013-2-17,30.9,24.8,20.7,19.5,13.6,6.9,78,62,45,30.23,29.88,10,5,17,0.00
2013-2-18,41.7,29.1,13.3,19.6,11.4,6.1,76,49,32,30.39,30.12,7,3,10,0.00
2013-2-19,47.9,37.6,27.6,41.7,27.9,17.7,89,69,48,30.12,29.67,10,4,16,0.23
2013-2-20,33.5,28.1,23.8,23.6,15.0,9.7,69,58,49,30.18,29.88,11,6,19,0.00
2013-2-21,36.5,27.6,22.9,19.6,15.2,11.6,78,60,48,30.36,30.15,7,3,12,0.00
2013-2-22,33.1,28.7,22.3,28.0,23.4,17.3,86,81,62,30.40,30.21,6,3,11,0.01
2013-2-23,44.5,36.8,31.7,39.9,34.0,28.0,95,90,83,30.20,29.83,6,1,7,0.01
2013-2-24,45.6,37.0,26.3,37.0,29.2,19.9,96,75,50,30.14,29.81,8,3,14,0.00
2013-2-25,47.0,33.6,21.6,26.0,22.7,17.6,87,67,41,30.24,30.14,4,1,5,0.00
2013-2-26,39.9,34.4,25.1,37.6,30.3,21.3,96,85,62,30.22,29.67,10,3,15,0.73
2013-2-27,51.0,42.5,35.5,43.4,36.2,33.9,97,80,57,29.70,29.57,9,2,16,0.06
2013-2-28,43.5,39.8,34.9,34.5,30.8,27.9,83,70,57,29.74,29.64,8,4,13,0.01